Atlantis — PCDT — position and weather

sailwx.info

Track history (hours):
 
Tides and Currents Weather Stations Pressure Air Temp Water Temp Dewpoint Dewpoint Depression Visibility Wind Speed Wind Dir Waves Ship Positions

Atlantis (Netherlands)

Ship's website: http://www.tallship-company.com/artemis/gb_atlantis.htm

Last reported at 2015-May-22 14:32 UTC. Time now 2015-May-22 14:35 UTC.
Position N 54°22' E 010°09'.

Length 40 m; draft 4.4 m.

Type: Sailing vessel. MMSI: 246253000.

Date/timePositionNaut miles runAvg speedWind from/ knotsBaromVisibWave heightAir tempDewpointWater temp
2015-May-22 14:32N 54°22' E 010°09'0 0.0
2015-May-22 13:32N 54°22' E 010°09'0 0.0
2015-May-22 12:32N 54°22' E 010°09'0 0.0
2015-May-22 11:32N 54°22' E 010°09'0 0.0
2015-May-22 10:32N 54°22' E 010°09'0 0.0
2015-May-22 09:32N 54°22' E 010°09'0 0.0
2015-May-22 08:32N 54°22' E 010°09'0 0.0
2015-May-22 07:32N 54°22' E 010°09'0 0.0
2015-May-22 06:32N 54°22' E 010°09'0 0.0
2015-May-22 05:32N 54°22' E 010°09'0 0.0
2015-May-22 04:32N 54°22' E 010°09'0 0.0
2015-May-22 03:32N 54°22' E 010°09'0 0.0
2015-May-22 02:32N 54°22' E 010°09'0 0.0
2015-May-22 01:32N 54°22' E 010°09'0 0.0
2015-May-22 00:32N 54°22' E 010°09'0 0.0
2015-May-21 23:32N 54°22' E 010°09'0 0.0
2015-May-21 22:32N 54°22' E 010°09'0 0.0
2015-May-21 21:32N 54°22' E 010°09'0 0.0
2015-May-21 20:32N 54°22' E 010°09'0 0.0
2015-May-21 19:32N 54°22' E 010°09'0 0.0
2015-May-21 18:32N 54°22' E 010°09'0 0.0
2015-May-21 17:33N 54°22' E 010°09'3 3.2
2015-May-21 16:33N 54°25' E 010°12'5 4.8
2015-May-21 15:33N 54°29' E 010°14'5 5.4
2015-May-21 14:33N 54°35' E 010°13'  
2015-May-18 13:21N 54°42' E 010°05'4 5.5
2015-May-18 12:33N 54°38' E 010°08'3 3.1
2015-May-18 11:33N 54°35' E 010°10'3 3.2
2015-May-18 10:33N 54°32' E 010°11'3 3.1
2015-May-18 09:33N 54°29' E 010°13'4 3.6
2015-May-18 08:33N 54°26' E 010°14'4 4.5
2015-May-18 07:33N 54°22' E 010°10'0 0.2
2015-May-18 06:32N 54°22' E 010°09'0 0.0
2015-May-18 05:32N 54°22' E 010°09'0 0.0
2015-May-18 04:29N 54°22' E 010°09'0 0.0
2015-May-18 03:32N 54°22' E 010°09'0 0.0
2015-May-18 02:32N 54°22' E 010°09'0 0.0
2015-May-18 01:32N 54°22' E 010°09'0 0.0
2015-May-18 00:32N 54°22' E 010°09'0 0.0
2015-May-17 23:32N 54°22' E 010°09'0 0.0
2015-May-17 22:32N 54°22' E 010°09'0 0.0
2015-May-17 21:32N 54°22' E 010°09'0 0.0
2015-May-17 20:32N 54°22' E 010°09'0 0.0
2015-May-17 19:32N 54°22' E 010°09'0 0.0
2015-May-17 18:32N 54°22' E 010°09'0 0.0
2015-May-17 17:32N 54°22' E 010°09'0 0.0
2015-May-17 16:32N 54°22' E 010°09'0 0.0
2015-May-17 15:32N 54°22' E 010°09'0 0.0
2015-May-17 14:32N 54°22' E 010°09'0 0.0
2015-May-17 13:32N 54°22' E 010°09'0 0.0
2015-May-17 12:32N 54°22' E 010°09'0 0.0
2015-May-17 11:32N 54°22' E 010°09'0 0.0
2015-May-17 10:32N 54°22' E 010°09'0 0.0
2015-May-17 09:32N 54°22' E 010°09'0 0.0
2015-May-17 08:29N 54°22' E 010°09'0 0.0
2015-May-17 07:32N 54°22' E 010°09'0 0.0
2015-May-17 06:32N 54°22' E 010°09'0 0.0
2015-May-17 05:32N 54°22' E 010°09'0 0.0
2015-May-17 04:29N 54°22' E 010°09'0 0.0
2015-May-17 03:32N 54°22' E 010°09'0 0.0
2015-May-17 02:32N 54°22' E 010°09'0 0.0
2015-May-17 01:32N 54°22' E 010°09'0 0.0
2015-May-17 00:32N 54°22' E 010°09'0 0.0
2015-May-16 23:32N 54°22' E 010°09'0 0.0
2015-May-16 22:32N 54°22' E 010°09'0 0.0
2015-May-16 21:32N 54°22' E 010°09'0 0.0
2015-May-16 20:29N 54°22' E 010°09'0 0.0
2015-May-16 19:32N 54°22' E 010°09'0 0.0
2015-May-16 18:29N 54°22' E 010°09'0 0.0
2015-May-16 17:32N 54°22' E 010°09'0 0.0
2015-May-16 16:32N 54°22' E 010°09'0 0.0
2015-May-16 15:32N 54°22' E 010°09'0 0.0
2015-May-16 14:32N 54°22' E 010°09'0 0.0
2015-May-16 13:32N 54°22' E 010°09'0 0.0
2015-May-16 12:32N 54°22' E 010°09'0 0.0
2015-May-16 11:32N 54°22' E 010°09'0 0.0
2015-May-16 10:32N 54°22' E 010°09'0 0.0
2015-May-16 09:32N 54°22' E 010°09'0 0.0
2015-May-16 08:32N 54°22' E 010°09'0 0.0
2015-May-16 07:32N 54°22' E 010°09'0 0.0
2015-May-16 06:32N 54°22' E 010°09'0 0.0
2015-May-16 05:32N 54°22' E 010°09'0 0.0
2015-May-16 04:32N 54°22' E 010°09'0 0.0
2015-May-16 03:32N 54°22' E 010°09'0 0.0
2015-May-16 02:32N 54°22' E 010°09'0 0.0
2015-May-16 01:32N 54°22' E 010°09'0 0.0
2015-May-16 00:32N 54°22' E 010°09'0 0.0
2015-May-15 23:32N 54°22' E 010°09'0 0.0
2015-May-15 22:32N 54°22' E 010°09'0 0.0
2015-May-15 21:32N 54°22' E 010°09'0 0.0
2015-May-15 20:29N 54°22' E 010°09'0 0.0
2015-May-15 19:32N 54°22' E 010°09'0 0.0
2015-May-15 18:32N 54°22' E 010°09'0 0.0
2015-May-15 17:29N 54°22' E 010°09'0 0.0
2015-May-15 16:32N 54°22' E 010°09'0 0.0
2015-May-15 15:32N 54°22' E 010°09'0 0.0
2015-May-15 14:32N 54°22' E 010°09'0 0.0
2015-May-15 13:32N 54°22' E 010°09'0 0.0
2015-May-15 12:33N 54°22' E 010°09'0 0.0
2015-May-15 11:33N 54°22' E 010°09'0 0.0
2015-May-15 10:33N 54°22' E 010°09'0 0.0
2015-May-15 09:33N 54°22' E 010°09'0 0.0
2015-May-15 08:33N 54°22' E 010°09'0 0.0
2015-May-15 07:33N 54°22' E 010°09'0 0.0
2015-May-15 06:33N 54°22' E 010°09'0 0.0
2015-May-15 05:33N 54°22' E 010°09'0 0.0
2015-May-15 04:33N 54°22' E 010°09'0 0.0
2015-May-15 03:33N 54°22' E 010°09'0 0.0
2015-May-15 02:33N 54°22' E 010°09'0 0.0
2015-May-15 01:33N 54°22' E 010°09'0 0.0
2015-May-15 00:33N 54°22' E 010°09'0 0.0
2015-May-14 23:33N 54°22' E 010°09'0 0.0
2015-May-14 22:33N 54°22' E 010°09'0 0.0
2015-May-14 21:33N 54°22' E 010°09'0 0.0
2015-May-14 20:34N 54°22' E 010°09'0 0.0
2015-May-14 19:33N 54°22' E 010°09'0 0.0
2015-May-14 18:33N 54°22' E 010°09'0 0.0
2015-May-14 17:33N 54°22' E 010°09'0 0.0
2015-May-14 16:33N 54°22' E 010°09'0 0.0
2015-May-14 15:33N 54°22' E 010°09'0 0.0
2015-May-14 14:33N 54°22' E 010°09'0 0.0
2015-May-14 13:33N 54°22' E 010°09'0 0.0
2015-May-14 12:33N 54°22' E 010°09'0 0.0
2015-May-14 11:33N 54°22' E 010°09'0 0.0
2015-May-14 10:33N 54°22' E 010°09'0 0.0
2015-May-14 09:33N 54°22' E 010°09'0 0.0
2015-May-14 08:33N 54°22' E 010°09'0 0.0
2015-May-14 07:33N 54°22' E 010°09'0 0.0
2015-May-14 06:33N 54°22' E 010°09'0 0.0
2015-May-14 05:33N 54°22' E 010°09'0 0.0
2015-May-14 04:33N 54°22' E 010°09'0 0.0
2015-May-14 03:33N 54°22' E 010°09'0 0.0
2015-May-14 02:30N 54°22' E 010°09'0 0.0
2015-May-14 01:33N 54°22' E 010°09'0 0.0
2015-May-14 00:30N 54°22' E 010°09'0 0.0
2015-May-13 23:33N 54°22' E 010°09'0 0.0
2015-May-13 22:33N 54°22' E 010°09'0 0.0
2015-May-13 21:33N 54°22' E 010°09'0 0.0
2015-May-13 20:33N 54°22' E 010°09'0 0.0
2015-May-13 19:33N 54°22' E 010°09'0 0.0
2015-May-13 18:33N 54°22' E 010°09'0 0.0
2015-May-13 17:33N 54°22' E 010°09'0 0.0
2015-May-13 16:33N 54°22' E 010°09'0 0.0
2015-May-13 15:33N 54°22' E 010°09'0 0.0
2015-May-13 14:33N 54°22' E 010°09'0 0.0
2015-May-13 13:33N 54°22' E 010°09'0 0.0
2015-May-13 12:33N 54°22' E 010°09'0 0.0
2015-May-13 11:33N 54°22' E 010°09'0 0.0
2015-May-13 10:24N 54°22' E 010°09'0 0.0
2015-May-13 09:33N 54°22' E 010°09'0 0.0
2015-May-13 08:33N 54°22' E 010°09'0 0.0
2015-May-13 07:33N 54°22' E 010°09'0 0.0
2015-May-13 06:30N 54°22' E 010°09'0 0.0
2015-May-13 05:33N 54°22' E 010°09'0 0.0
2015-May-13 04:33N 54°22' E 010°09'0 0.0
2015-May-13 03:33N 54°22' E 010°09'0 0.0
2015-May-13 02:33N 54°22' E 010°09'0 0.0
2015-May-13 01:33N 54°22' E 010°09'0 0.0
2015-May-13 00:33N 54°22' E 010°09'0 0.0
2015-May-12 23:33N 54°22' E 010°09'0 0.0
2015-May-12 22:33N 54°22' E 010°09'0 0.0
2015-May-12 21:33N 54°22' E 010°09'0 0.0
2015-May-12 20:33N 54°22' E 010°09'0 0.0
2015-May-12 19:33N 54°22' E 010°09'0 0.0
2015-May-12 18:33N 54°22' E 010°09'0 0.0
2015-May-12 17:33N 54°22' E 010°09'0 0.0
2015-May-12 16:33N 54°22' E 010°09'0 0.0
2015-May-12 15:33N 54°22' E 010°09'0 0.0
2015-May-12 14:34N 54°22' E 010°09'  
Track history (hours):
 
Tides and Currents Weather Stations Pressure Air Temp Water Temp Dewpoint Dewpoint Depression Visibility Wind Speed Wind Dir Waves Ship Positions

Atlantis (Netherlands)

Ship's website: http://www.tallship-company.com/artemis/gb_atlantis.htm

Last reported at 2015-May-22 14:32 UTC. Time now 2015-May-22 14:35 UTC.
Position N 54°22' E 010°09'.

Length 40 m; draft 4.4 m.

Type: Sailing vessel. MMSI: 246253000.

Date/timePositionNaut miles runAvg speedWind from/ knotsBaromVisibWave heightAir tempDewpointWater temp
2015-May-22 14:32N 54°22' E 010°09'0 0.0
2015-May-22 13:32N 54°22' E 010°09'0 0.0
2015-May-22 12:32N 54°22' E 010°09'0 0.0
2015-May-22 11:32N 54°22' E 010°09'0 0.0
2015-May-22 10:32N 54°22' E 010°09'0 0.0
2015-May-22 09:32N 54°22' E 010°09'0 0.0
2015-May-22 08:32N 54°22' E 010°09'0 0.0
2015-May-22 07:32N 54°22' E 010°09'0 0.0
2015-May-22 06:32N 54°22' E 010°09'0 0.0
2015-May-22 05:32N 54°22' E 010°09'0 0.0
2015-May-22 04:32N 54°22' E 010°09'0 0.0
2015-May-22 03:32N 54°22' E 010°09'0 0.0
2015-May-22 02:32N 54°22' E 010°09'0 0.0
2015-May-22 01:32N 54°22' E 010°09'0 0.0
2015-May-22 00:32N 54°22' E 010°09'0 0.0
2015-May-21 23:32N 54°22' E 010°09'0 0.0
2015-May-21 22:32N 54°22' E 010°09'0 0.0
2015-May-21 21:32N 54°22' E 010°09'0 0.0
2015-May-21 20:32N 54°22' E 010°09'0 0.0
2015-May-21 19:32N 54°22' E 010°09'0 0.0
2015-May-21 18:32N 54°22' E 010°09'0 0.0
2015-May-21 17:33N 54°22' E 010°09'3 3.2
2015-May-21 16:33N 54°25' E 010°12'5 4.8
2015-May-21 15:33N 54°29' E 010°14'5 5.4
2015-May-21 14:33N 54°35' E 010°13'  
2015-May-18 13:21N 54°42' E 010°05'4 5.5
2015-May-18 12:33N 54°38' E 010°08'3 3.1
2015-May-18 11:33N 54°35' E 010°10'3 3.2
2015-May-18 10:33N 54°32' E 010°11'3 3.1
2015-May-18 09:33N 54°29' E 010°13'4 3.6
2015-May-18 08:33N 54°26' E 010°14'4 4.5
2015-May-18 07:33N 54°22' E 010°10'0 0.2
2015-May-18 06:32N 54°22' E 010°09'0 0.0
2015-May-18 05:32N 54°22' E 010°09'0 0.0
2015-May-18 04:29N 54°22' E 010°09'0 0.0
2015-May-18 03:32N 54°22' E 010°09'0 0.0
2015-May-18 02:32N 54°22' E 010°09'0 0.0
2015-May-18 01:32N 54°22' E 010°09'0 0.0
2015-May-18 00:32N 54°22' E 010°09'0 0.0
2015-May-17 23:32N 54°22' E 010°09'0 0.0
2015-May-17 22:32N 54°22' E 010°09'0 0.0
2015-May-17 21:32N 54°22' E 010°09'0 0.0
2015-May-17 20:32N 54°22' E 010°09'0 0.0
2015-May-17 19:32N 54°22' E 010°09'0 0.0
2015-May-17 18:32N 54°22' E 010°09'0 0.0
2015-May-17 17:32N 54°22' E 010°09'0 0.0
2015-May-17 16:32N 54°22' E 010°09'0 0.0
2015-May-17 15:32N 54°22' E 010°09'0 0.0
2015-May-17 14:32N 54°22' E 010°09'0 0.0
2015-May-17 13:32N 54°22' E 010°09'0 0.0
2015-May-17 12:32N 54°22' E 010°09'0 0.0
2015-May-17 11:32N 54°22' E 010°09'0 0.0
2015-May-17 10:32N 54°22' E 010°09'0 0.0
2015-May-17 09:32N 54°22' E 010°09'0 0.0
2015-May-17 08:29N 54°22' E 010°09'0 0.0
2015-May-17 07:32N 54°22' E 010°09'0 0.0
2015-May-17 06:32N 54°22' E 010°09'0 0.0
2015-May-17 05:32N 54°22' E 010°09'0 0.0
2015-May-17 04:29N 54°22' E 010°09'0 0.0
2015-May-17 03:32N 54°22' E 010°09'0 0.0
2015-May-17 02:32N 54°22' E 010°09'0 0.0
2015-May-17 01:32N 54°22' E 010°09'0 0.0
2015-May-17 00:32N 54°22' E 010°09'0 0.0
2015-May-16 23:32N 54°22' E 010°09'0 0.0
2015-May-16 22:32N 54°22' E 010°09'0 0.0
2015-May-16 21:32N 54°22' E 010°09'0 0.0
2015-May-16 20:29N 54°22' E 010°09'0 0.0
2015-May-16 19:32N 54°22' E 010°09'0 0.0
2015-May-16 18:29N 54°22' E 010°09'0 0.0
2015-May-16 17:32N 54°22' E 010°09'0 0.0
2015-May-16 16:32N 54°22' E 010°09'0 0.0
2015-May-16 15:32N 54°22' E 010°09'0 0.0
2015-May-16 14:32N 54°22' E 010°09'0 0.0
2015-May-16 13:32N 54°22' E 010°09'0 0.0
2015-May-16 12:32N 54°22' E 010°09'0 0.0
2015-May-16 11:32N 54°22' E 010°09'0 0.0
2015-May-16 10:32N 54°22' E 010°09'0 0.0
2015-May-16 09:32N 54°22' E 010°09'0 0.0
2015-May-16 08:32N 54°22' E 010°09'0 0.0
2015-May-16 07:32N 54°22' E 010°09'0 0.0
2015-May-16 06:32N 54°22' E 010°09'0 0.0
2015-May-16 05:32N 54°22' E 010°09'0 0.0
2015-May-16 04:32N 54°22' E 010°09'0 0.0
2015-May-16 03:32N 54°22' E 010°09'0 0.0
2015-May-16 02:32N 54°22' E 010°09'0 0.0
2015-May-16 01:32N 54°22' E 010°09'0 0.0
2015-May-16 00:32N 54°22' E 010°09'0 0.0
2015-May-15 23:32N 54°22' E 010°09'0 0.0
2015-May-15 22:32N 54°22' E 010°09'0 0.0
2015-May-15 21:32N 54°22' E 010°09'0 0.0
2015-May-15 20:29N 54°22' E 010°09'0 0.0
2015-May-15 19:32N 54°22' E 010°09'0 0.0
2015-May-15 18:32N 54°22' E 010°09'0 0.0
2015-May-15 17:29N 54°22' E 010°09'0 0.0
2015-May-15 16:32N 54°22' E 010°09'0 0.0
2015-May-15 15:32N 54°22' E 010°09'0 0.0
2015-May-15 14:32N 54°22' E 010°09'0 0.0
2015-May-15 13:32N 54°22' E 010°09'0 0.0
2015-May-15 12:33N 54°22' E 010°09'0 0.0
2015-May-15 11:33N 54°22' E 010°09'0 0.0
2015-May-15 10:33N 54°22' E 010°09'0 0.0
2015-May-15 09:33N 54°22' E 010°09'0 0.0
2015-May-15 08:33N 54°22' E 010°09'0 0.0
2015-May-15 07:33N 54°22' E 010°09'0 0.0
2015-May-15 06:33N 54°22' E 010°09'0 0.0
2015-May-15 05:33N 54°22' E 010°09'0 0.0
2015-May-15 04:33N 54°22' E 010°09'0 0.0
2015-May-15 03:33N 54°22' E 010°09'0 0.0
2015-May-15 02:33N 54°22' E 010°09'0 0.0
2015-May-15 01:33N 54°22' E 010°09'0 0.0
2015-May-15 00:33N 54°22' E 010°09'0 0.0
2015-May-14 23:33N 54°22' E 010°09'0 0.0
2015-May-14 22:33N 54°22' E 010°09'0 0.0
2015-May-14 21:33N 54°22' E 010°09'0 0.0
2015-May-14 20:34N 54°22' E 010°09'0 0.0
2015-May-14 19:33N 54°22' E 010°09'0 0.0
2015-May-14 18:33N 54°22' E 010°09'0 0.0
2015-May-14 17:33N 54°22' E 010°09'0 0.0
2015-May-14 16:33N 54°22' E 010°09'0 0.0
2015-May-14 15:33N 54°22' E 010°09'0 0.0
2015-May-14 14:33N 54°22' E 010°09'0 0.0
2015-May-14 13:33N 54°22' E 010°09'0 0.0
2015-May-14 12:33N 54°22' E 010°09'0 0.0
2015-May-14 11:33N 54°22' E 010°09'0 0.0
2015-May-14 10:33N 54°22' E 010°09'0 0.0
2015-May-14 09:33N 54°22' E 010°09'0 0.0
2015-May-14 08:33N 54°22' E 010°09'0 0.0
2015-May-14 07:33N 54°22' E 010°09'0 0.0
2015-May-14 06:33N 54°22' E 010°09'0 0.0
2015-May-14 05:33N 54°22' E 010°09'0 0.0
2015-May-14 04:33N 54°22' E 010°09'0 0.0
2015-May-14 03:33N 54°22' E 010°09'0 0.0
2015-May-14 02:30N 54°22' E 010°09'0 0.0
2015-May-14 01:33N 54°22' E 010°09'0 0.0
2015-May-14 00:30N 54°22' E 010°09'0 0.0
2015-May-13 23:33N 54°22' E 010°09'0 0.0
2015-May-13 22:33N 54°22' E 010°09'0 0.0
2015-May-13 21:33N 54°22' E 010°09'0 0.0
2015-May-13 20:33N 54°22' E 010°09'0 0.0
2015-May-13 19:33N 54°22' E 010°09'0 0.0
2015-May-13 18:33N 54°22' E 010°09'0 0.0
2015-May-13 17:33N 54°22' E 010°09'0 0.0
2015-May-13 16:33N 54°22' E 010°09'0 0.0
2015-May-13 15:33N 54°22' E 010°09'0 0.0
2015-May-13 14:33N 54°22' E 010°09'0 0.0
2015-May-13 13:33N 54°22' E 010°09'0 0.0
2015-May-13 12:33N 54°22' E 010°09'0 0.0
2015-May-13 11:33N 54°22' E 010°09'0 0.0
2015-May-13 10:24N 54°22' E 010°09'0 0.0
2015-May-13 09:33N 54°22' E 010°09'0 0.0
2015-May-13 08:33N 54°22' E 010°09'0 0.0
2015-May-13 07:33N 54°22' E 010°09'0 0.0
2015-May-13 06:30N 54°22' E 010°09'0 0.0
2015-May-13 05:33N 54°22' E 010°09'0 0.0
2015-May-13 04:33N 54°22' E 010°09'0 0.0
2015-May-13 03:33N 54°22' E 010°09'0 0.0
2015-May-13 02:33N 54°22' E 010°09'0 0.0
2015-May-13 01:33N 54°22' E 010°09'0 0.0
2015-May-13 00:33N 54°22' E 010°09'0 0.0
2015-May-12 23:33N 54°22' E 010°09'0 0.0
2015-May-12 22:33N 54°22' E 010°09'0 0.0
2015-May-12 21:33N 54°22' E 010°09'0 0.0
2015-May-12 20:33N 54°22' E 010°09'0 0.0
2015-May-12 19:33N 54°22' E 010°09'0 0.0
2015-May-12 18:33N 54°22' E 010°09'0 0.0
2015-May-12 17:33N 54°22' E 010°09'0 0.0
2015-May-12 16:33N 54°22' E 010°09'0 0.0
2015-May-12 15:33N 54°22' E 010°09'0 0.0
2015-May-12 14:34N 54°22' E 010°09'  

Dump ship's entire track history